sensor_id;sensor_type;location;lat;lon;timestamp;pressure;altitude;pressure_sealevel;temperature;humidity
51147;BME280;37207;53.060;18.726;2024-01-11T00:01:32;101720.69;;;-4.39;98.69
51147;BME280;37207;53.060;18.726;2024-01-11T00:03:59;101736.48;;;-4.40;98.86
51147;BME280;37207;53.060;18.726;2024-01-11T00:06:26;101760.88;;;-4.41;99.15
51147;BME280;37207;53.060;18.726;2024-01-11T00:08:52;101762.80;;;-4.41;99.17
51147;BME280;37207;53.060;18.726;2024-01-11T00:11:19;101752.70;;;-4.41;99.16
51147;BME280;37207;53.060;18.726;2024-01-11T00:13:45;101738.64;;;-4.40;99.23
51147;BME280;37207;53.060;18.726;2024-01-11T00:16:12;101732.59;;;-4.38;99.40
51147;BME280;37207;53.060;18.726;2024-01-11T00:18:38;101717.09;;;-4.35;99.58
51147;BME280;37207;53.060;18.726;2024-01-11T00:21:05;101694.92;;;-4.32;99.44
51147;BME280;37207;53.060;18.726;2024-01-11T00:23:32;101690.92;;;-4.31;99.16
51147;BME280;37207;53.060;18.726;2024-01-11T00:25:58;101698.79;;;-4.31;99.51
51147;BME280;37207;53.060;18.726;2024-01-11T00:28:25;101695.54;;;-4.32;99.26
51147;BME280;37207;53.060;18.726;2024-01-11T00:30:52;101716.58;;;-4.32;99.56
51147;BME280;37207;53.060;18.726;2024-01-11T00:33:18;101713.02;;;-4.33;99.09
51147;BME280;37207;53.060;18.726;2024-01-11T00:35:45;101708.92;;;-4.34;99.37
51147;BME280;37207;53.060;18.726;2024-01-11T00:38:11;101698.83;;;-4.35;99.72
51147;BME280;37207;53.060;18.726;2024-01-11T00:40:38;101694.73;;;-4.35;99.19
51147;BME280;37207;53.060;18.726;2024-01-11T00:43:04;101694.83;;;-4.34;99.34
51147;BME280;37207;53.060;18.726;2024-01-11T00:45:31;101696.85;;;-4.32;99.56
51147;BME280;37207;53.060;18.726;2024-01-11T00:47:57;101692.35;;;-4.30;99.88
51147;BME280;37207;53.060;18.726;2024-01-11T00:50:24;101695.94;;;-4.27;99.79
51147;BME280;37207;53.060;18.726;2024-01-11T00:52:50;101699.91;;;-4.26;99.56
51147;BME280;37207;53.060;18.726;2024-01-11T00:55:17;101711.67;;;-4.23;99.85
51147;BME280;37207;53.060;18.726;2024-01-11T00:57:44;101708.95;;;-4.20;99.94
51147;BME280;37207;53.060;18.726;2024-01-11T01:00:11;101705.75;;;-4.18;99.96
51147;BME280;37207;53.060;18.726;2024-01-11T01:02:40;101693.67;;;-4.17;99.78
51147;BME280;37207;53.060;18.726;2024-01-11T01:05:08;101695.54;;;-4.15;99.91
51147;BME280;37207;53.060;18.726;2024-01-11T01:07:34;101703.73;;;-4.14;99.94
51147;BME280;37207;53.060;18.726;2024-01-11T01:10:01;101706.30;;;-4.12;99.89
51147;BME280;37207;53.060;18.726;2024-01-11T01:12:28;101703.60;;;-4.12;100.00
51147;BME280;37207;53.060;18.726;2024-01-11T01:14:55;101705.73;;;-4.10;100.00
51147;BME280;37207;53.060;18.726;2024-01-11T01:17:22;101703.89;;;-4.06;99.99
51147;BME280;37207;53.060;18.726;2024-01-11T01:19:48;101704.45;;;-4.05;99.94
51147;BME280;37207;53.060;18.726;2024-01-11T01:22:15;101708.50;;;-4.03;100.00
51147;BME280;37207;53.060;18.726;2024-01-11T01:24:41;101720.25;;;-4.01;100.00
51147;BME280;37207;53.060;18.726;2024-01-11T01:27:08;101725.83;;;-4.00;100.00
51147;BME280;37207;53.060;18.726;2024-01-11T01:29:34;101711.10;;;-3.99;100.00
51147;BME280;37207;53.060;18.726;2024-01-11T01:32:01;101702.40;;;-3.97;100.00
51147;BME280;37207;53.060;18.726;2024-01-11T01:34:27;101707.69;;;-3.96;100.00
51147;BME280;37207;53.060;18.726;2024-01-11T01:36:54;101706.31;;;-3.95;100.00
51147;BME280;37207;53.060;18.726;2024-01-11T01:39:21;101699.33;;;-3.93;100.00
51147;BME280;37207;53.060;18.726;2024-01-11T01:41:47;101693.98;;;-3.90;100.00
51147;BME280;37207;53.060;18.726;2024-01-11T01:44:16;101690.11;;;-3.87;100.00
51147;BME280;37207;53.060;18.726;2024-01-11T01:46:42;101698.25;;;-3.84;100.00
51147;BME280;37207;53.060;18.726;2024-01-11T01:49:10;101704.99;;;-3.82;100.00
51147;BME280;37207;53.060;18.726;2024-01-11T01:51:37;101715.88;;;-3.82;100.00
51147;BME280;37207;53.060;18.726;2024-01-11T01:54:04;101716.12;;;-3.80;100.00
51147;BME280;37207;53.060;18.726;2024-01-11T01:56:32;101723.86;;;-3.78;100.00
51147;BME280;37207;53.060;18.726;2024-01-11T01:58:58;101732.63;;;-3.76;100.00
51147;BME280;37207;53.060;18.726;2024-01-11T02:01:27;101724.16;;;-3.74;100.00
51147;BME280;37207;53.060;18.726;2024-01-11T02:03:54;101715.59;;;-3.71;100.00
51147;BME280;37207;53.060;18.726;2024-01-11T02:06:25;101709.31;;;-3.68;100.00
51147;BME280;37207;53.060;18.726;2024-01-11T02:08:52;101704.70;;;-3.67;100.00
51147;BME280;37207;53.060;18.726;2024-01-11T02:11:20;101702.34;;;-3.65;100.00
51147;BME280;37207;53.060;18.726;2024-01-11T02:13:47;101691.95;;;-3.64;100.00
51147;BME280;37207;53.060;18.726;2024-01-11T02:16:14;101690.96;;;-3.61;100.00
51147;BME280;37207;53.060;18.726;2024-01-11T02:18:41;101675.19;;;-3.59;100.00
51147;BME280;37207;53.060;18.726;2024-01-11T02:21:11;101664.77;;;-3.55;100.00
51147;BME280;37207;53.060;18.726;2024-01-11T02:23:43;101670.82;;;-3.52;100.00
51147;BME280;37207;53.060;18.726;2024-01-11T02:26:14;101668.30;;;-3.51;100.00
51147;BME280;37207;53.060;18.726;2024-01-11T02:28:45;101660.73;;;-3.51;100.00
51147;BME280;37207;53.060;18.726;2024-01-11T02:31:13;101654.18;;;-3.51;100.00
51147;BME280;37207;53.060;18.726;2024-01-11T02:33:40;101646.30;;;-3.51;100.00
51147;BME280;37207;53.060;18.726;2024-01-11T02:36:07;101649.33;;;-3.51;100.00
51147;BME280;37207;53.060;18.726;2024-01-11T02:38:34;101648.39;;;-3.51;100.00
51147;BME280;37207;53.060;18.726;2024-01-11T02:41:01;101649.34;;;-3.49;100.00
51147;BME280;37207;53.060;18.726;2024-01-11T02:43:47;101650.60;;;-3.47;100.00
51147;BME280;37207;53.060;18.726;2024-01-11T02:46:18;101647.60;;;-3.46;100.00
51147;BME280;37207;53.060;18.726;2024-01-11T02:48:45;101647.08;;;-3.45;100.00
51147;BME280;37207;53.060;18.726;2024-01-11T02:51:12;101647.53;;;-3.44;100.00
51147;BME280;37207;53.060;18.726;2024-01-11T02:53:38;101641.52;;;-3.44;100.00
51147;BME280;37207;53.060;18.726;2024-01-11T02:56:05;101631.36;;;-3.42;100.00
51147;BME280;37207;53.060;18.726;2024-01-11T02:58:31;101618.67;;;-3.39;100.00
51147;BME280;37207;53.060;18.726;2024-01-11T03:00:58;101606.43;;;-3.37;100.00
51147;BME280;37207;53.060;18.726;2024-01-11T03:03:24;101605.09;;;-3.34;100.00
51147;BME280;37207;53.060;18.726;2024-01-11T03:05:51;101601.03;;;-3.32;100.00
51147;BME280;37207;53.060;18.726;2024-01-11T03:08:17;101604.52;;;-3.30;100.00
51147;BME280;37207;53.060;18.726;2024-01-11T03:10:44;101596.58;;;-3.29;100.00
51147;BME280;37207;53.060;18.726;2024-01-11T03:13:10;101584.80;;;-3.26;100.00
51147;BME280;37207;53.060;18.726;2024-01-11T03:15:37;101574.19;;;-3.23;100.00
51147;BME280;37207;53.060;18.726;2024-01-11T03:18:04;101583.33;;;-3.21;100.00
51147;BME280;37207;53.060;18.726;2024-01-11T03:20:31;101580.64;;;-3.20;100.00
51147;BME280;37207;53.060;18.726;2024-01-11T03:22:57;101584.70;;;-3.17;100.00
51147;BME280;37207;53.060;18.726;2024-01-11T03:25:24;101578.60;;;-3.17;100.00
51147;BME280;37207;53.060;18.726;2024-01-11T03:27:51;101573.27;;;-3.16;100.00
51147;BME280;37207;53.060;18.726;2024-01-11T03:30:17;101563.88;;;-3.13;100.00
51147;BME280;37207;53.060;18.726;2024-01-11T03:32:44;101564.05;;;-3.11;100.00
51147;BME280;37207;53.060;18.726;2024-01-11T03:35:10;101560.28;;;-3.10;100.00
51147;BME280;37207;53.060;18.726;2024-01-11T03:37:37;101548.48;;;-3.08;100.00
51147;BME280;37207;53.060;18.726;2024-01-11T03:40:04;101549.52;;;-3.05;100.00
51147;BME280;37207;53.060;18.726;2024-01-11T03:42:31;101557.05;;;-3.03;100.00
51147;BME280;37207;53.060;18.726;2024-01-11T03:44:58;101550.83;;;-3.00;100.00
51147;BME280;37207;53.060;18.726;2024-01-11T03:47:24;101544.21;;;-2.98;100.00
51147;BME280;37207;53.060;18.726;2024-01-11T03:49:51;101537.05;;;-2.94;100.00
51147;BME280;37207;53.060;18.726;2024-01-11T03:52:17;101532.66;;;-2.92;100.00
51147;BME280;37207;53.060;18.726;2024-01-11T03:54:44;101535.41;;;-2.89;100.00
51147;BME280;37207;53.060;18.726;2024-01-11T03:57:11;101520.15;;;-2.86;100.00
51147;BME280;37207;53.060;18.726;2024-01-11T03:59:37;101517.39;;;-2.84;100.00
51147;BME280;37207;53.060;18.726;2024-01-11T04:02:04;101511.16;;;-2.81;100.00
51147;BME280;37207;53.060;18.726;2024-01-11T04:04:31;101507.02;;;-2.80;100.00
51147;BME280;37207;53.060;18.726;2024-01-11T04:06:58;101508.27;;;-2.77;100.00
51147;BME280;37207;53.060;18.726;2024-01-11T04:09:24;101510.59;;;-2.74;100.00
51147;BME280;37207;53.060;18.726;2024-01-11T04:11:51;101512.09;;;-2.72;100.00
51147;BME280;37207;53.060;18.726;2024-01-11T04:14:17;101509.86;;;-2.70;100.00
51147;BME280;37207;53.060;18.726;2024-01-11T04:16:44;101490.42;;;-2.68;100.00
51147;BME280;37207;53.060;18.726;2024-01-11T04:19:11;101500.17;;;-2.66;100.00
51147;BME280;37207;53.060;18.726;2024-01-11T04:21:37;101505.77;;;-2.64;100.00
51147;BME280;37207;53.060;18.726;2024-01-11T04:24:07;101493.87;;;-2.63;100.00
51147;BME280;37207;53.060;18.726;2024-01-11T04:26:34;101491.80;;;-2.61;100.00
51147;BME280;37207;53.060;18.726;2024-01-11T04:29:01;101483.84;;;-2.59;100.00
51147;BME280;37207;53.060;18.726;2024-01-11T04:31:27;101470.86;;;-2.58;100.00
51147;BME280;37207;53.060;18.726;2024-01-11T04:33:54;101478.84;;;-2.57;100.00
51147;BME280;37207;53.060;18.726;2024-01-11T04:36:21;101482.48;;;-2.56;100.00
51147;BME280;37207;53.060;18.726;2024-01-11T04:38:47;101478.55;;;-2.53;100.00
51147;BME280;37207;53.060;18.726;2024-01-11T04:41:15;101467.82;;;-2.53;100.00
51147;BME280;37207;53.060;18.726;2024-01-11T04:43:43;101468.52;;;-2.52;100.00
51147;BME280;37207;53.060;18.726;2024-01-11T04:46:17;101473.94;;;-2.51;100.00
51147;BME280;37207;53.060;18.726;2024-01-11T04:48:44;101480.45;;;-2.49;100.00
51147;BME280;37207;53.060;18.726;2024-01-11T04:51:12;101483.19;;;-2.47;100.00
51147;BME280;37207;53.060;18.726;2024-01-11T04:53:40;101486.44;;;-2.45;100.00
51147;BME280;37207;53.060;18.726;2024-01-11T04:56:07;101488.16;;;-2.42;100.00
51147;BME280;37207;53.060;18.726;2024-01-11T04:58:35;101494.41;;;-2.41;100.00
51147;BME280;37207;53.060;18.726;2024-01-11T05:01:04;101490.66;;;-2.37;100.00
51147;BME280;37207;53.060;18.726;2024-01-11T05:03:31;101489.77;;;-2.34;100.00
51147;BME280;37207;53.060;18.726;2024-01-11T05:05:58;101488.40;;;-2.30;100.00
51147;BME280;37207;53.060;18.726;2024-01-11T05:08:26;101481.86;;;-2.26;100.00
51147;BME280;37207;53.060;18.726;2024-01-11T05:10:52;101484.02;;;-2.24;100.00
51147;BME280;37207;53.060;18.726;2024-01-11T05:13:19;101488.53;;;-2.22;100.00
51147;BME280;37207;53.060;18.726;2024-01-11T05:15:46;101483.21;;;-2.19;100.00
51147;BME280;37207;53.060;18.726;2024-01-11T05:18:13;101485.23;;;-2.16;100.00
51147;BME280;37207;53.060;18.726;2024-01-11T05:20:40;101475.13;;;-2.15;100.00
51147;BME280;37207;53.060;18.726;2024-01-11T05:23:06;101466.02;;;-2.13;100.00
51147;BME280;37207;53.060;18.726;2024-01-11T05:25:33;101455.75;;;-2.10;100.00
51147;BME280;37207;53.060;18.726;2024-01-11T05:28:00;101446.85;;;-2.08;100.00
51147;BME280;37207;53.060;18.726;2024-01-11T05:30:27;101455.45;;;-2.06;100.00
51147;BME280;37207;53.060;18.726;2024-01-11T05:32:54;101462.48;;;-2.05;100.00
51147;BME280;37207;53.060;18.726;2024-01-11T05:35:21;101476.95;;;-2.04;100.00
51147;BME280;37207;53.060;18.726;2024-01-11T05:37:50;101476.58;;;-2.03;100.00
51147;BME280;37207;53.060;18.726;2024-01-11T05:40:17;101470.63;;;-2.02;100.00
51147;BME280;37207;53.060;18.726;2024-01-11T05:42:43;101471.26;;;-2.00;100.00
51147;BME280;37207;53.060;18.726;2024-01-11T05:45:10;101465.02;;;-1.99;100.00
51147;BME280;37207;53.060;18.726;2024-01-11T05:47:36;101462.54;;;-1.97;100.00
51147;BME280;37207;53.060;18.726;2024-01-11T05:50:03;101460.23;;;-1.95;100.00
51147;BME280;37207;53.060;18.726;2024-01-11T05:52:30;101457.46;;;-1.94;100.00
51147;BME280;37207;53.060;18.726;2024-01-11T05:54:56;101448.80;;;-1.92;100.00
51147;BME280;37207;53.060;18.726;2024-01-11T05:57:23;101452.04;;;-1.90;100.00
51147;BME280;37207;53.060;18.726;2024-01-11T05:59:49;101446.42;;;-1.87;100.00
51147;BME280;37207;53.060;18.726;2024-01-11T06:02:16;101439.63;;;-1.84;100.00
51147;BME280;37207;53.060;18.726;2024-01-11T06:04:42;101435.38;;;-1.82;100.00
51147;BME280;37207;53.060;18.726;2024-01-11T06:07:09;101431.84;;;-1.80;100.00
51147;BME280;37207;53.060;18.726;2024-01-11T06:09:35;101439.98;;;-1.77;100.00
51147;BME280;37207;53.060;18.726;2024-01-11T06:12:02;101426.45;;;-1.75;100.00
51147;BME280;37207;53.060;18.726;2024-01-11T06:14:29;101429.54;;;-1.73;100.00
51147;BME280;37207;53.060;18.726;2024-01-11T06:16:55;101431.46;;;-1.71;100.00
51147;BME280;37207;53.060;18.726;2024-01-11T06:19:23;101433.88;;;-1.69;100.00
51147;BME280;37207;53.060;18.726;2024-01-11T06:21:49;101431.86;;;-1.69;100.00
51147;BME280;37207;53.060;18.726;2024-01-11T06:24:16;101440.46;;;-1.67;100.00
51147;BME280;37207;53.060;18.726;2024-01-11T06:26:42;101437.38;;;-1.67;100.00
51147;BME280;37207;53.060;18.726;2024-01-11T06:29:09;101455.64;;;-1.66;100.00
51147;BME280;37207;53.060;18.726;2024-01-11T06:31:35;101447.60;;;-1.65;100.00
51147;BME280;37207;53.060;18.726;2024-01-11T06:34:02;101438.55;;;-1.63;100.00
51147;BME280;37207;53.060;18.726;2024-01-11T06:36:30;101436.79;;;-1.61;100.00
51147;BME280;37207;53.060;18.726;2024-01-11T06:38:56;101436.64;;;-1.59;100.00
51147;BME280;37207;53.060;18.726;2024-01-11T06:41:23;101433.71;;;-1.57;100.00
51147;BME280;37207;53.060;18.726;2024-01-11T06:43:49;101435.55;;;-1.55;100.00
51147;BME280;37207;53.060;18.726;2024-01-11T06:46:20;101436.40;;;-1.54;100.00
51147;BME280;37207;53.060;18.726;2024-01-11T06:48:48;101422.86;;;-1.53;100.00
51147;BME280;37207;53.060;18.726;2024-01-11T06:51:16;101417.06;;;-1.51;100.00
51147;BME280;37207;53.060;18.726;2024-01-11T06:53:42;101409.79;;;-1.50;100.00
51147;BME280;37207;53.060;18.726;2024-01-11T06:56:16;101419.86;;;-1.47;100.00
51147;BME280;37207;53.060;18.726;2024-01-11T06:59:10;101423.14;;;-1.43;100.00
51147;BME280;37207;53.060;18.726;2024-01-11T07:01:37;101411.14;;;-1.40;100.00
51147;BME280;37207;53.060;18.726;2024-01-11T07:04:05;101403.63;;;-1.37;100.00
51147;BME280;37207;53.060;18.726;2024-01-11T07:06:40;101408.42;;;-1.34;100.00
51147;BME280;37207;53.060;18.726;2024-01-11T07:09:06;101412.31;;;-1.32;100.00
51147;BME280;37207;53.060;18.726;2024-01-11T07:11:33;101412.70;;;-1.29;100.00
51147;BME280;37207;53.060;18.726;2024-01-11T07:13:59;101411.02;;;-1.27;100.00
51147;BME280;37207;53.060;18.726;2024-01-11T07:16:26;101415.43;;;-1.25;100.00
51147;BME280;37207;53.060;18.726;2024-01-11T07:18:52;101410.88;;;-1.23;100.00
51147;BME280;37207;53.060;18.726;2024-01-11T07:21:25;101412.17;;;-1.21;100.00
51147;BME280;37207;53.060;18.726;2024-01-11T07:23:56;101421.16;;;-1.18;100.00
51147;BME280;37207;53.060;18.726;2024-01-11T07:26:27;101421.71;;;-1.15;100.00
51147;BME280;37207;53.060;18.726;2024-01-11T07:28:53;101419.70;;;-1.13;100.00
51147;BME280;37207;53.060;18.726;2024-01-11T07:31:23;101413.59;;;-1.10;100.00
51147;BME280;37207;53.060;18.726;2024-01-11T07:33:49;101405.92;;;-1.07;100.00
51147;BME280;37207;53.060;18.726;2024-01-11T07:36:16;101412.59;;;-1.05;100.00
51147;BME280;37207;53.060;18.726;2024-01-11T07:38:43;101409.25;;;-1.02;100.00
51147;BME280;37207;53.060;18.726;2024-01-11T07:41:09;101399.02;;;-0.99;100.00
51147;BME280;37207;53.060;18.726;2024-01-11T07:43:36;101398.64;;;-0.97;100.00
51147;BME280;37207;53.060;18.726;2024-01-11T07:46:03;101398.56;;;-0.95;100.00
51147;BME280;37207;53.060;18.726;2024-01-11T07:48:32;101386.95;;;-0.94;100.00
51147;BME280;37207;53.060;18.726;2024-01-11T07:50:59;101390.83;;;-0.91;100.00
51147;BME280;37207;53.060;18.726;2024-01-11T07:53:26;101385.41;;;-0.90;100.00
51147;BME280;37207;53.060;18.726;2024-01-11T07:55:52;101374.24;;;-0.89;100.00
51147;BME280;37207;53.060;18.726;2024-01-11T07:58:19;101376.72;;;-0.87;100.00
51147;BME280;37207;53.060;18.726;2024-01-11T08:00:47;101379.96;;;-0.85;100.00
51147;BME280;37207;53.060;18.726;2024-01-11T08:03:15;101381.66;;;-0.82;100.00
51147;BME280;37207;53.060;18.726;2024-01-11T08:05:42;101390.27;;;-0.81;100.00
51147;BME280;37207;53.060;18.726;2024-01-11T08:08:09;101398.80;;;-0.79;100.00
51147;BME280;37207;53.060;18.726;2024-01-11T08:10:36;101401.73;;;-0.78;100.00
51147;BME280;37207;53.060;18.726;2024-01-11T08:13:03;101414.39;;;-0.77;100.00
51147;BME280;37207;53.060;18.726;2024-01-11T08:15:30;101407.40;;;-0.76;100.00
51147;BME280;37207;53.060;18.726;2024-01-11T08:17:56;101409.50;;;-0.75;100.00
51147;BME280;37207;53.060;18.726;2024-01-11T08:20:23;101412.75;;;-0.74;100.00
51147;BME280;37207;53.060;18.726;2024-01-11T08:22:50;101412.91;;;-0.73;100.00
51147;BME280;37207;53.060;18.726;2024-01-11T08:25:16;101414.31;;;-0.72;100.00
51147;BME280;37207;53.060;18.726;2024-01-11T08:27:44;101417.41;;;-0.72;100.00
51147;BME280;37207;53.060;18.726;2024-01-11T08:30:10;101424.31;;;-0.71;100.00
51147;BME280;37207;53.060;18.726;2024-01-11T08:32:39;101425.86;;;-0.70;100.00
51147;BME280;37207;53.060;18.726;2024-01-11T08:35:11;101423.98;;;-0.68;100.00
51147;BME280;37207;53.060;18.726;2024-01-11T08:37:38;101422.73;;;-0.66;100.00
51147;BME280;37207;53.060;18.726;2024-01-11T08:40:06;101426.23;;;-0.63;100.00
51147;BME280;37207;53.060;18.726;2024-01-11T08:42:32;101431.12;;;-0.59;100.00
51147;BME280;37207;53.060;18.726;2024-01-11T08:44:59;101429.34;;;-0.56;100.00
51147;BME280;37207;53.060;18.726;2024-01-11T08:47:33;101426.54;;;-0.52;100.00
51147;BME280;37207;53.060;18.726;2024-01-11T08:50:01;101429.85;;;-0.47;100.00
51147;BME280;37207;53.060;18.726;2024-01-11T08:52:32;101433.50;;;-0.43;100.00
51147;BME280;37207;53.060;18.726;2024-01-11T08:55:00;101434.37;;;-0.39;100.00
51147;BME280;37207;53.060;18.726;2024-01-11T08:57:26;101430.55;;;-0.35;100.00
51147;BME280;37207;53.060;18.726;2024-01-11T08:59:53;101436.04;;;-0.29;100.00
51147;BME280;37207;53.060;18.726;2024-01-11T09:02:21;101439.06;;;-0.27;100.00
51147;BME280;37207;53.060;18.726;2024-01-11T09:04:47;101435.34;;;-0.25;100.00
51147;BME280;37207;53.060;18.726;2024-01-11T09:07:14;101432.78;;;-0.24;100.00
51147;BME280;37207;53.060;18.726;2024-01-11T09:09:42;101431.00;;;-0.22;100.00
51147;BME280;37207;53.060;18.726;2024-01-11T09:12:08;101421.45;;;-0.19;100.00
51147;BME280;37207;53.060;18.726;2024-01-11T09:14:35;101417.77;;;-0.15;100.00
51147;BME280;37207;53.060;18.726;2024-01-11T09:17:02;101416.29;;;-0.10;100.00
51147;BME280;37207;53.060;18.726;2024-01-11T09:19:28;101417.91;;;-0.04;100.00
51147;BME280;37207;53.060;18.726;2024-01-11T09:21:55;101418.13;;;-0.00;100.00
51147;BME280;37207;53.060;18.726;2024-01-11T09:24:21;101420.83;;;0.05;100.00
51147;BME280;37207;53.060;18.726;2024-01-11T09:26:48;101422.77;;;0.08;100.00
51147;BME280;37207;53.060;18.726;2024-01-11T09:29:16;101422.05;;;0.11;100.00
51147;BME280;37207;53.060;18.726;2024-01-11T09:31:43;101409.48;;;0.15;100.00
51147;BME280;37207;53.060;18.726;2024-01-11T09:34:09;101402.86;;;0.17;100.00
51147;BME280;37207;53.060;18.726;2024-01-11T09:36:36;101403.22;;;0.20;100.00
51147;BME280;37207;53.060;18.726;2024-01-11T09:39:05;101397.62;;;0.22;100.00
51147;BME280;37207;53.060;18.726;2024-01-11T09:41:35;101392.18;;;0.24;100.00
51147;BME280;37207;53.060;18.726;2024-01-11T09:44:04;101385.80;;;0.26;100.00
51147;BME280;37207;53.060;18.726;2024-01-11T09:46:31;101388.67;;;0.28;100.00
51147;BME280;37207;53.060;18.726;2024-01-11T09:49:00;101381.21;;;0.32;100.00
51147;BME280;37207;53.060;18.726;2024-01-11T09:51:29;101375.11;;;0.36;100.00
51147;BME280;37207;53.060;18.726;2024-01-11T09:53:57;101376.19;;;0.40;100.00
51147;BME280;37207;53.060;18.726;2024-01-11T09:56:25;101374.77;;;0.41;100.00
51147;BME280;37207;53.060;18.726;2024-01-11T09:58:54;101375.23;;;0.43;100.00
51147;BME280;37207;53.060;18.726;2024-01-11T10:01:21;101374.14;;;0.44;100.00
51147;BME280;37207;53.060;18.726;2024-01-11T10:03:48;101374.30;;;0.46;100.00
51147;BME280;37207;53.060;18.726;2024-01-11T10:06:15;101376.71;;;0.46;100.00
51147;BME280;37207;53.060;18.726;2024-01-11T10:08:43;101378.95;;;0.48;100.00
51147;BME280;37207;53.060;18.726;2024-01-11T10:11:10;101384.92;;;0.49;100.00
51147;BME280;37207;53.060;18.726;2024-01-11T10:13:37;101383.98;;;0.50;100.00
51147;BME280;37207;53.060;18.726;2024-01-11T10:16:07;101383.95;;;0.53;100.00
51147;BME280;37207;53.060;18.726;2024-01-11T10:18:35;101384.71;;;0.54;100.00
51147;BME280;37207;53.060;18.726;2024-01-11T10:21:02;101390.15;;;0.53;100.00
51147;BME280;37207;53.060;18.726;2024-01-11T10:23:33;101390.04;;;0.52;100.00
51147;BME280;37207;53.060;18.726;2024-01-11T10:26:00;101383.66;;;0.52;100.00
51147;BME280;37207;53.060;18.726;2024-01-11T10:28:27;101374.04;;;0.51;100.00
51147;BME280;37207;53.060;18.726;2024-01-11T10:30:55;101371.78;;;0.51;100.00
51147;BME280;37207;53.060;18.726;2024-01-11T10:33:22;101369.81;;;0.53;100.00
51147;BME280;37207;53.060;18.726;2024-01-11T10:35:49;101380.83;;;0.57;100.00
51147;BME280;37207;53.060;18.726;2024-01-11T10:38:17;101386.55;;;0.62;100.00
51147;BME280;37207;53.060;18.726;2024-01-11T10:40:44;101389.17;;;0.64;100.00
51147;BME280;37207;53.060;18.726;2024-01-11T10:43:13;101385.13;;;0.66;100.00
51147;BME280;37207;53.060;18.726;2024-01-11T10:45:43;101381.67;;;0.70;100.00
51147;BME280;37207;53.060;18.726;2024-01-11T10:48:15;101374.81;;;0.72;100.00
51147;BME280;37207;53.060;18.726;2024-01-11T10:50:43;101366.35;;;0.72;100.00
51147;BME280;37207;53.060;18.726;2024-01-11T10:55:47;101358.96;;;0.73;100.00
51147;BME280;37207;53.060;18.726;2024-01-11T10:58:15;101351.50;;;0.73;100.00
51147;BME280;37207;53.060;18.726;2024-01-11T11:00:43;101348.85;;;0.74;100.00
51147;BME280;37207;53.060;18.726;2024-01-11T11:03:12;101355.45;;;0.74;100.00
51147;BME280;37207;53.060;18.726;2024-01-11T11:05:40;101360.75;;;0.74;100.00
51147;BME280;37207;53.060;18.726;2024-01-11T11:08:09;101358.49;;;0.73;100.00
51147;BME280;37207;53.060;18.726;2024-01-11T11:10:37;101361.84;;;0.72;100.00
51147;BME280;37207;53.060;18.726;2024-01-11T11:13:05;101357.09;;;0.72;100.00
51147;BME280;37207;53.060;18.726;2024-01-11T11:15:33;101354.38;;;0.72;100.00
51147;BME280;37207;53.060;18.726;2024-01-11T11:18:03;101361.07;;;0.71;100.00
51147;BME280;37207;53.060;18.726;2024-01-11T11:20:32;101357.73;;;0.70;100.00
51147;BME280;37207;53.060;18.726;2024-01-11T11:23:09;101360.77;;;0.70;100.00
51147;BME280;37207;53.060;18.726;2024-01-11T11:25:37;101358.73;;;0.71;100.00
51147;BME280;37207;53.060;18.726;2024-01-11T11:28:05;101362.78;;;0.70;100.00
51147;BME280;37207;53.060;18.726;2024-01-11T11:30:33;101365.27;;;0.70;100.00
51147;BME280;37207;53.060;18.726;2024-01-11T11:33:10;101363.72;;;0.69;100.00
51147;BME280;37207;53.060;18.726;2024-01-11T11:35:37;101360.95;;;0.68;100.00
51147;BME280;37207;53.060;18.726;2024-01-11T11:38:05;101353.73;;;0.67;100.00
51147;BME280;37207;53.060;18.726;2024-01-11T11:40:40;101351.79;;;0.67;100.00
51147;BME280;37207;53.060;18.726;2024-01-11T11:43:12;101352.01;;;0.69;100.00
51147;BME280;37207;53.060;18.726;2024-01-11T11:45:40;101340.21;;;0.68;100.00
51147;BME280;37207;53.060;18.726;2024-01-11T11:53:42;101343.48;;;0.69;100.00
51147;BME280;37207;53.060;18.726;2024-01-11T11:56:10;101349.15;;;0.69;100.00
51147;BME280;37207;53.060;18.726;2024-01-11T11:58:37;101342.30;;;0.68;100.00
51147;BME280;37207;53.060;18.726;2024-01-11T12:01:05;101343.70;;;0.69;100.00
51147;BME280;37207;53.060;18.726;2024-01-11T12:03:35;101336.77;;;0.69;100.00
51147;BME280;37207;53.060;18.726;2024-01-11T12:06:07;101336.28;;;0.71;100.00
51147;BME280;37207;53.060;18.726;2024-01-11T12:08:35;101336.20;;;0.72;100.00
51147;BME280;37207;53.060;18.726;2024-01-11T12:11:03;101326.33;;;0.72;100.00
51147;BME280;37207;53.060;18.726;2024-01-11T12:13:31;101326.80;;;0.72;100.00
51147;BME280;37207;53.060;18.726;2024-01-11T12:15:58;101330.53;;;0.71;100.00
51147;BME280;37207;53.060;18.726;2024-01-11T12:18:25;101333.58;;;0.70;100.00
51147;BME280;37207;53.060;18.726;2024-01-11T12:20:51;101332.67;;;0.68;100.00
51147;BME280;37207;53.060;18.726;2024-01-11T12:23:21;101330.27;;;0.66;100.00
51147;BME280;37207;53.060;18.726;2024-01-11T12:25:48;101333.85;;;0.65;100.00
51147;BME280;37207;53.060;18.726;2024-01-11T12:28:14;101337.13;;;0.63;100.00
51147;BME280;37207;53.060;18.726;2024-01-11T12:30:41;101330.99;;;0.62;100.00
51147;BME280;37207;53.060;18.726;2024-01-11T12:33:09;101328.91;;;0.61;100.00
51147;BME280;37207;53.060;18.726;2024-01-11T12:35:36;101328.91;;;0.60;100.00
51147;BME280;37207;53.060;18.726;2024-01-11T12:38:04;101333.48;;;0.61;100.00
51147;BME280;37207;53.060;18.726;2024-01-11T12:40:38;101327.05;;;0.61;100.00
51147;BME280;37207;53.060;18.726;2024-01-11T12:43:06;101325.41;;;0.61;100.00